YELM weather

Elmore Airport
Victoria, Australia

Public forecast

Using degrees Celsius for public forecast. Weather courtesy of forecast.io.

Closest aviation weather report (METAR) to Elmore Airport

Closest report is Melbourne International Airport, 71.7 nm (132.7 km) S. Retrieved 2020/01/29 07:30 UTC (11 minutes ago):

YMML 290730Z 15011KT CAVOK 31/03 Q1014 NOSIG

Closest aviation forecast (TAF) to Elmore Airport

Closest forecast is Melbourne International Airport, 71.7 nm (132.7 km) S. Retrieved 2020/01/29 06:42 UTC (59 minutes ago):

TAF YMML 290520Z 2906/3012 16010KT CAVOK FM291000 VRB05KT CAVOK FM291400 36008KT CAVOK FM292300 35014KT CAVOK BECMG 3008/3010 VRB05KT CAVOK